createdAt,value
2022-10-05T00:00:13.970Z,25.85
2022-10-05T00:00:43.969Z,25.85
2022-10-05T00:01:13.988Z,25.88
2022-10-05T00:01:44.083Z,25.87
2022-10-05T00:02:14.136Z,25.87
2022-10-05T00:02:44.152Z,25.85
2022-10-05T00:03:14.175Z,25.88
2022-10-05T00:03:44.192Z,25.88
2022-10-05T00:04:14.273Z,25.87
2022-10-05T00:04:44.300Z,25.89
2022-10-05T00:05:14.375Z,25.88
2022-10-05T00:05:44.343Z,25.89
2022-10-05T00:06:14.378Z,25.91
2022-10-05T00:06:44.783Z,25.87
2022-10-05T00:07:14.490Z,25.91
2022-10-05T00:07:44.506Z,25.89
2022-10-05T00:08:14.526Z,25.87
2022-10-05T00:08:44.550Z,25.89
2022-10-05T00:09:14.572Z,25.89
2022-10-05T00:09:44.602Z,25.89
2022-10-05T00:10:14.615Z,25.88
2022-10-05T00:10:44.634Z,25.89
2022-10-05T00:11:14.664Z,25.91
2022-10-05T00:11:44.689Z,25.89
2022-10-05T00:12:14.706Z,25.89
2022-10-05T00:12:44.726Z,25.88
2022-10-05T00:13:14.757Z,25.91
2022-10-05T00:13:44.771Z,25.89
2022-10-05T00:14:14.790Z,25.91
2022-10-05T00:14:44.811Z,25.88
2022-10-05T00:15:14.834Z,25.89
2022-10-05T00:15:44.880Z,25.87
2022-10-05T00:16:14.896Z,25.87
2022-10-05T00:16:45.316Z,25.89
2022-10-05T00:17:14.992Z,25.85
2022-10-05T00:17:45.101Z,25.85
2022-10-05T00:18:15.218Z,25.87
2022-10-05T00:18:45.328Z,25.88
2022-10-05T00:19:15.433Z,25.87
2022-10-05T00:19:45.544Z,25.88
2022-10-05T00:20:15.663Z,25.91
2022-10-05T00:20:45.764Z,25.87
2022-10-05T00:21:15.877Z,25.88
2022-10-05T00:21:45.986Z,25.88
2022-10-05T00:22:16.097Z,25.87
2022-10-05T00:22:46.204Z,25.84
2022-10-05T00:23:16.320Z,25.88
2022-10-05T00:23:46.423Z,25.85
2022-10-05T00:24:16.541Z,25.84
2022-10-05T00:24:46.639Z,25.87
2022-10-05T00:25:16.744Z,25.87
2022-10-05T00:25:46.854Z,25.84
2022-10-05T00:26:16.992Z,25.83
2022-10-05T00:26:47.297Z,25.83
2022-10-05T00:27:17.021Z,25.84
2022-10-05T00:27:47.052Z,25.83
2022-10-05T00:28:17.122Z,25.81
2022-10-05T00:28:47.136Z,25.81
2022-10-05T00:29:17.154Z,25.80
2022-10-05T00:29:47.174Z,25.77
2022-10-05T00:30:17.185Z,25.77
2022-10-05T00:30:47.218Z,25.78
2022-10-05T00:31:17.281Z,25.77
2022-10-05T00:31:47.423Z,25.77
2022-10-05T00:32:17.296Z,25.75
2022-10-05T00:32:47.314Z,25.75
2022-10-05T00:33:17.338Z,25.74
2022-10-05T00:33:47.355Z,25.74
2022-10-05T00:34:17.369Z,25.74
2022-10-05T00:34:47.389Z,25.74
2022-10-05T00:35:17.401Z,25.71
2022-10-05T00:35:47.424Z,25.71
2022-10-05T00:36:17.445Z,25.71
2022-10-05T00:36:48.019Z,25.73
2022-10-05T00:37:17.499Z,25.68
2022-10-05T00:37:47.514Z,25.71
2022-10-05T00:38:17.532Z,25.73
2022-10-05T00:38:47.555Z,25.71
2022-10-05T00:39:17.576Z,25.70
2022-10-05T00:39:47.596Z,25.67
2022-10-05T00:40:17.609Z,25.68
2022-10-05T00:40:47.639Z,25.66
2022-10-05T00:41:17.658Z,25.67
2022-10-05T00:41:47.683Z,25.68
2022-10-05T00:42:17.717Z,25.70
2022-10-05T00:42:47.735Z,25.68
2022-10-05T00:43:17.751Z,25.66
2022-10-05T00:43:47.771Z,25.66
2022-10-05T00:44:17.803Z,25.66
2022-10-05T00:44:47.819Z,25.66
2022-10-05T00:45:17.833Z,25.64
2022-10-05T00:45:47.949Z,25.66
2022-10-05T00:46:18.014Z,25.66
2022-10-05T00:46:48.342Z,25.66
2022-10-05T00:47:17.967Z,25.67
2022-10-05T00:47:47.989Z,25.66
2022-10-05T00:48:18.014Z,25.66
2022-10-05T00:48:48.036Z,25.68
2022-10-05T00:49:18.058Z,25.68
2022-10-05T00:49:48.075Z,25.67
2022-10-05T00:50:18.090Z,25.67
2022-10-05T00:50:48.108Z,25.67
2022-10-05T00:51:18.131Z,25.66
2022-10-05T00:51:48.150Z,25.71
2022-10-05T00:52:18.163Z,25.70
2022-10-05T00:52:48.180Z,25.71
2022-10-05T00:53:18.206Z,25.73
2022-10-05T00:53:48.233Z,25.68
2022-10-05T00:54:18.600Z,25.71
2022-10-05T00:54:48.352Z,25.73
2022-10-05T00:55:18.364Z,25.73
2022-10-05T00:55:48.390Z,25.71
2022-10-05T00:56:18.411Z,25.74
2022-10-05T00:56:48.768Z,25.74
2022-10-05T00:57:18.434Z,25.74
2022-10-05T00:57:48.454Z,25.77
2022-10-05T00:58:18.477Z,25.75
2022-10-05T00:58:48.503Z,25.73
2022-10-05T00:59:18.528Z,25.77
2022-10-05T00:59:48.540Z,25.77
2022-10-05T01:00:18.557Z,25.77
2022-10-05T01:00:48.654Z,25.75
2022-10-05T01:01:18.739Z,25.77
2022-10-05T01:01:48.825Z,25.77
2022-10-05T01:02:18.991Z,25.77
2022-10-05T01:02:48.962Z,25.78
2022-10-05T01:03:18.986Z,25.78
2022-10-05T01:03:49.008Z,25.80
2022-10-05T01:04:19.023Z,25.81
2022-10-05T01:04:49.039Z,25.80
2022-10-05T01:05:19.053Z,25.83
2022-10-05T01:05:49.072Z,25.80
2022-10-05T01:06:19.089Z,25.81
2022-10-05T01:06:49.104Z,25.84
2022-10-05T01:07:19.118Z,25.81
2022-10-05T01:07:49.134Z,25.83
2022-10-05T01:08:19.148Z,25.81
2022-10-05T01:08:49.167Z,25.83
2022-10-05T01:09:19.182Z,25.81
2022-10-05T01:09:49.201Z,25.84
2022-10-05T01:10:19.218Z,25.81
2022-10-05T01:10:49.236Z,25.81
2022-10-05T01:11:19.261Z,25.81
2022-10-05T01:11:49.278Z,25.83
2022-10-05T01:12:19.300Z,25.83
2022-10-05T01:12:49.309Z,25.83
2022-10-05T01:13:19.325Z,25.84
2022-10-05T01:13:49.343Z,25.84
2022-10-05T01:14:19.360Z,25.83
2022-10-05T01:14:49.377Z,25.83
2022-10-05T01:15:19.403Z,25.80
2022-10-05T01:15:49.424Z,25.81
2022-10-05T01:16:19.499Z,25.81
2022-10-05T01:16:49.959Z,25.83
2022-10-05T01:17:19.535Z,25.83
2022-10-05T01:17:49.671Z,25.81
2022-10-05T01:18:19.749Z,25.81
2022-10-05T01:18:49.858Z,25.84
2022-10-05T01:19:19.960Z,25.84
2022-10-05T01:19:50.063Z,25.83
2022-10-05T01:20:20.168Z,25.81
2022-10-05T01:20:50.275Z,25.81
2022-10-05T01:21:20.382Z,25.81
2022-10-05T01:21:50.486Z,25.83
2022-10-05T01:22:20.590Z,25.83
2022-10-05T01:22:50.697Z,25.83
2022-10-05T01:23:20.800Z,25.81
2022-10-05T01:23:50.907Z,25.80
2022-10-05T01:24:21.025Z,25.83
2022-10-05T01:24:51.120Z,25.81
2022-10-05T01:25:21.226Z,25.75
2022-10-05T01:25:51.331Z,25.78
2022-10-05T01:26:21.440Z,25.77
2022-10-05T01:26:51.451Z,25.81
2022-10-05T01:27:21.469Z,25.78
2022-10-05T01:27:51.493Z,25.77
2022-10-05T01:28:21.535Z,25.77
2022-10-05T01:28:51.547Z,25.78
2022-10-05T01:29:21.563Z,25.78
2022-10-05T01:29:51.593Z,25.78
2022-10-05T01:30:21.604Z,25.77
2022-10-05T01:30:51.621Z,25.74
2022-10-05T01:31:21.671Z,25.74
2022-10-05T01:31:51.773Z,25.74
2022-10-05T01:32:21.680Z,25.73
2022-10-05T01:32:51.718Z,25.73
2022-10-05T01:33:21.711Z,25.74
2022-10-05T01:33:51.734Z,25.70
2022-10-05T01:34:21.752Z,25.68
2022-10-05T01:34:51.771Z,25.66
2022-10-05T01:35:21.797Z,25.67
2022-10-05T01:35:51.813Z,25.67
2022-10-05T01:36:21.826Z,25.66
2022-10-05T01:36:51.862Z,25.64
2022-10-05T01:37:21.890Z,25.63
2022-10-05T01:37:51.908Z,25.66
2022-10-05T01:38:21.933Z,25.66
2022-10-05T01:38:51.950Z,25.64
2022-10-05T01:39:21.980Z,25.63
2022-10-05T01:39:51.999Z,25.63
2022-10-05T01:40:22.013Z,25.63
2022-10-05T01:40:52.037Z,25.61
2022-10-05T01:41:22.052Z,25.57
2022-10-05T01:41:52.096Z,25.61
2022-10-05T01:42:22.116Z,25.63
2022-10-05T01:42:52.134Z,25.58
2022-10-05T01:43:22.147Z,25.60
2022-10-05T01:43:52.167Z,25.60
2022-10-05T01:44:22.188Z,25.57
2022-10-05T01:44:52.210Z,25.58
2022-10-05T01:45:22.230Z,25.57
2022-10-05T01:45:52.337Z,25.60
2022-10-05T01:46:22.460Z,25.58
2022-10-05T01:46:52.389Z,25.56
2022-10-05T01:47:22.417Z,25.58
2022-10-05T01:47:52.437Z,25.60
2022-10-05T01:48:22.493Z,25.58
2022-10-05T01:48:52.483Z,25.57
2022-10-05T01:49:22.507Z,25.60
2022-10-05T01:49:52.529Z,25.60
2022-10-05T01:50:22.550Z,25.58
2022-10-05T01:50:52.572Z,25.60
2022-10-05T01:51:22.598Z,25.60
2022-10-05T01:51:52.615Z,25.61
2022-10-05T01:52:22.641Z,25.61
2022-10-05T01:52:52.665Z,25.61
2022-10-05T01:53:22.684Z,25.61
2022-10-05T01:53:52.699Z,25.64
2022-10-05T01:54:22.717Z,25.67
2022-10-05T01:54:52.737Z,25.66
2022-10-05T01:55:22.757Z,25.64
2022-10-05T01:55:52.777Z,25.67
2022-10-05T01:56:22.795Z,25.67
2022-10-05T01:56:52.813Z,25.67
2022-10-05T01:57:22.829Z,25.67
2022-10-05T01:57:52.858Z,25.71
2022-10-05T01:58:22.888Z,25.68
2022-10-05T01:58:52.898Z,25.68
2022-10-05T01:59:22.911Z,25.70
2022-10-05T01:59:52.934Z,25.70
2022-10-05T02:00:22.955Z,25.73
2022-10-05T02:00:53.056Z,25.73
2022-10-05T02:01:23.163Z,25.71
2022-10-05T02:01:53.145Z,25.71
2022-10-05T02:02:23.246Z,25.73
2022-10-05T02:02:53.250Z,25.74
2022-10-05T02:03:23.272Z,25.74
2022-10-05T02:03:53.313Z,25.73
2022-10-05T02:04:56.520Z,25.74
2022-10-05T02:05:02.297Z,25.73
2022-10-05T02:05:23.379Z,25.74
2022-10-05T02:05:53.402Z,25.74
2022-10-05T02:06:23.414Z,25.73
2022-10-05T02:06:53.435Z,25.75
2022-10-05T02:07:23.457Z,25.75
2022-10-05T02:07:53.484Z,25.74
2022-10-05T02:08:23.498Z,25.75
2022-10-05T02:08:53.514Z,25.75
2022-10-05T02:09:23.536Z,25.74
2022-10-05T02:09:53.551Z,25.75
2022-10-05T02:10:23.575Z,25.77
2022-10-05T02:10:53.599Z,25.77
2022-10-05T02:11:23.620Z,25.75
2022-10-05T02:11:53.644Z,25.75
2022-10-05T02:12:23.661Z,25.75
2022-10-05T02:12:53.675Z,25.75
2022-10-05T02:13:23.700Z,25.74
2022-10-05T02:13:53.728Z,25.75
2022-10-05T02:14:23.751Z,25.75
2022-10-05T02:14:53.767Z,25.78
2022-10-05T02:15:23.783Z,25.74
2022-10-05T02:15:53.865Z,25.74
2022-10-05T02:16:23.905Z,25.75
2022-10-05T02:16:53.999Z,25.74
2022-10-05T02:17:24.111Z,25.74
2022-10-05T02:17:54.244Z,25.75
2022-10-05T02:18:24.336Z,25.77
2022-10-05T02:18:54.452Z,25.75
2022-10-05T02:19:24.603Z,25.74
2022-10-05T02:19:54.676Z,25.73
2022-10-05T02:20:24.801Z,25.71
2022-10-05T02:20:54.901Z,25.74
2022-10-05T02:21:25.018Z,25.71
2022-10-05T02:21:55.122Z,25.74
2022-10-05T02:22:25.267Z,25.73
2022-10-05T02:22:55.329Z,25.74
2022-10-05T02:23:25.439Z,25.74
2022-10-05T02:23:55.543Z,25.73
2022-10-05T02:24:25.658Z,25.75
2022-10-05T02:24:55.755Z,25.74
2022-10-05T02:25:25.861Z,25.75
2022-10-05T02:25:55.971Z,25.71
2022-10-05T02:26:26.079Z,25.74
2022-10-05T02:26:56.094Z,25.71
2022-10-05T02:27:26.113Z,25.70
2022-10-05T02:27:56.173Z,25.70
2022-10-05T02:28:26.272Z,25.70
2022-10-05T02:28:56.195Z,25.70
2022-10-05T02:29:26.208Z,25.67
2022-10-05T02:29:56.227Z,25.67
2022-10-05T02:30:26.244Z,25.66
2022-10-05T02:30:56.269Z,25.68
2022-10-05T02:31:26.366Z,25.67
2022-10-05T02:31:56.415Z,25.68
2022-10-05T02:32:26.416Z,25.66
2022-10-05T02:32:56.444Z,25.66
2022-10-05T02:33:26.455Z,25.63
2022-10-05T02:33:56.476Z,25.64
2022-10-05T02:34:26.512Z,25.61
2022-10-05T02:34:56.508Z,25.58
2022-10-05T02:35:26.521Z,25.61
2022-10-05T02:35:56.541Z,25.60
2022-10-05T02:36:26.572Z,25.58
2022-10-05T02:36:56.581Z,25.61
2022-10-05T02:37:26.605Z,25.60
2022-10-05T02:37:56.617Z,25.56
2022-10-05T02:38:26.645Z,25.56
2022-10-05T02:38:56.662Z,25.56
2022-10-05T02:39:26.680Z,25.57
2022-10-05T02:39:56.691Z,25.54
2022-10-05T02:40:26.710Z,25.54
2022-10-05T02:40:56.734Z,25.51
2022-10-05T02:41:26.756Z,25.54
2022-10-05T02:41:56.772Z,25.50
2022-10-05T02:42:26.786Z,25.49
2022-10-05T02:42:56.801Z,25.49
2022-10-05T02:43:26.823Z,25.51
2022-10-05T02:43:56.840Z,25.49
2022-10-05T02:44:26.865Z,25.50
2022-10-05T02:44:56.895Z,25.50
2022-10-05T02:45:26.912Z,25.47
2022-10-05T02:45:56.948Z,25.46
2022-10-05T02:46:27.034Z,25.46
2022-10-05T02:46:57.873Z,25.47
2022-10-05T02:47:27.079Z,25.50
2022-10-05T02:47:57.094Z,25.47
2022-10-05T02:48:27.115Z,25.47
2022-10-05T02:48:57.136Z,25.50
2022-10-05T02:49:27.159Z,25.53
2022-10-05T02:49:57.193Z,25.57
2022-10-05T02:50:27.196Z,25.54
2022-10-05T02:50:57.213Z,25.57
2022-10-05T02:51:27.233Z,25.54
2022-10-05T02:51:57.260Z,25.57
2022-10-05T02:52:27.278Z,25.56
2022-10-05T02:52:57.294Z,25.54
2022-10-05T02:53:27.317Z,25.53
2022-10-05T02:53:57.334Z,25.56
2022-10-05T02:54:27.353Z,25.57
2022-10-05T02:54:57.369Z,25.54
2022-10-05T02:55:27.387Z,25.58
2022-10-05T02:55:57.409Z,25.56
2022-10-05T02:56:27.440Z,25.58
2022-10-05T02:56:57.466Z,25.56
2022-10-05T02:57:27.494Z,25.58
2022-10-05T02:57:57.514Z,25.58
2022-10-05T02:58:27.540Z,25.61
2022-10-05T02:58:57.561Z,25.60
2022-10-05T02:59:27.578Z,25.60
2022-10-05T02:59:57.598Z,25.63
2022-10-05T03:00:27.616Z,25.64
2022-10-05T03:00:57.716Z,25.64
2022-10-05T03:01:27.765Z,25.63
2022-10-05T03:01:57.782Z,25.61
2022-10-05T03:02:27.891Z,25.64
2022-10-05T03:02:57.812Z,25.67
2022-10-05T03:03:27.837Z,25.66
2022-10-05T03:03:57.863Z,25.66
2022-10-05T03:04:27.883Z,25.66
2022-10-05T03:04:57.899Z,25.66
2022-10-05T03:05:27.941Z,25.70
2022-10-05T03:05:57.936Z,25.67
2022-10-05T03:06:27.958Z,25.68
2022-10-05T03:06:57.977Z,25.70
2022-10-05T03:07:27.992Z,25.71
2022-10-05T03:07:58.006Z,25.70
2022-10-05T03:08:28.027Z,25.70
2022-10-05T03:08:58.047Z,25.68
2022-10-05T03:09:28.068Z,25.70
2022-10-05T03:10:01.096Z,25.70
2022-10-05T03:10:28.138Z,25.70
2022-10-05T03:10:58.153Z,25.70
2022-10-05T03:11:28.184Z,25.66
2022-10-05T03:11:58.200Z,25.68
2022-10-05T03:12:28.229Z,25.68
2022-10-05T03:12:58.247Z,25.67
2022-10-05T03:13:28.263Z,25.67
2022-10-05T03:13:58.279Z,25.66
2022-10-05T03:14:28.307Z,25.68
2022-10-05T03:14:58.322Z,25.70
2022-10-05T03:15:28.351Z,25.67
2022-10-05T03:15:58.436Z,25.68
2022-10-05T03:16:28.577Z,25.66
2022-10-05T03:16:58.536Z,25.66
2022-10-05T03:17:28.643Z,25.67
2022-10-05T03:17:58.752Z,25.64
2022-10-05T03:18:30.929Z,25.64
2022-10-05T03:18:58.875Z,25.67
2022-10-05T03:19:28.984Z,25.68
2022-10-05T03:19:59.095Z,25.67
2022-10-05T03:20:29.202Z,25.64
2022-10-05T03:20:59.330Z,25.66
2022-10-05T03:21:29.418Z,25.66
2022-10-05T03:21:59.523Z,25.64
2022-10-05T03:22:29.631Z,25.63
2022-10-05T03:22:59.735Z,25.66
2022-10-05T03:23:29.852Z,25.63
2022-10-05T03:23:59.953Z,25.64
2022-10-05T03:24:30.059Z,25.58
2022-10-05T03:25:00.164Z,25.60
2022-10-05T03:25:30.273Z,25.60
2022-10-05T03:26:00.379Z,25.60
2022-10-05T03:26:30.495Z,25.60
2022-10-05T03:27:00.512Z,25.58
2022-10-05T03:27:30.532Z,25.60
2022-10-05T03:28:00.596Z,25.56
2022-10-05T03:28:30.631Z,25.58
2022-10-05T03:29:00.642Z,25.54
2022-10-05T03:29:30.670Z,25.60
2022-10-05T03:30:00.686Z,25.57
2022-10-05T03:30:30.713Z,25.58
2022-10-05T03:31:00.799Z,25.54
2022-10-05T03:31:30.825Z,25.56
2022-10-05T03:32:00.831Z,25.54
2022-10-05T03:32:30.850Z,25.53
2022-10-05T03:33:00.868Z,25.57
2022-10-05T03:33:30.885Z,25.54
2022-10-05T03:34:00.914Z,25.53
2022-10-05T03:34:30.929Z,25.53
2022-10-05T03:35:00.944Z,25.53
2022-10-05T03:35:30.959Z,25.57
2022-10-05T03:36:00.980Z,25.53
2022-10-05T03:36:31.125Z,25.50
2022-10-05T03:37:01.097Z,25.53
2022-10-05T03:37:31.115Z,25.51
2022-10-05T03:38:01.130Z,25.51
2022-10-05T03:38:31.154Z,25.46
2022-10-05T03:39:01.175Z,25.51
2022-10-05T03:39:31.194Z,25.49
2022-10-05T03:40:01.208Z,25.49
2022-10-05T03:40:31.227Z,25.49
2022-10-05T03:41:01.250Z,25.47
2022-10-05T03:41:31.269Z,25.46
2022-10-05T03:42:01.292Z,25.46
2022-10-05T03:42:31.308Z,25.46
2022-10-05T03:43:01.327Z,25.46
2022-10-05T03:43:31.342Z,25.44
2022-10-05T03:44:01.358Z,25.44
2022-10-05T03:44:31.376Z,25.43
2022-10-05T03:45:01.390Z,25.44
2022-10-05T03:45:31.406Z,25.46
2022-10-05T03:46:01.444Z,25.43
2022-10-05T03:46:31.524Z,25.44
2022-10-05T03:47:01.550Z,25.41
2022-10-05T03:47:31.570Z,25.44
2022-10-05T03:48:01.866Z,25.41
2022-10-05T03:48:31.647Z,25.41
2022-10-05T03:49:01.664Z,25.41
2022-10-05T03:49:31.678Z,25.39
2022-10-05T03:50:01.700Z,25.40
2022-10-05T03:50:31.722Z,25.37
2022-10-05T03:51:01.747Z,25.40
2022-10-05T03:51:31.761Z,25.37
2022-10-05T03:52:01.801Z,25.37
2022-10-05T03:52:31.796Z,25.33
2022-10-05T03:53:01.817Z,25.36
2022-10-05T03:53:31.843Z,25.34
2022-10-05T03:54:01.862Z,25.36
2022-10-05T03:54:31.879Z,25.34
2022-10-05T03:55:01.899Z,25.33
2022-10-05T03:55:31.917Z,25.33
2022-10-05T03:56:03.344Z,25.33
2022-10-05T03:56:31.941Z,25.30
2022-10-05T03:57:01.962Z,25.29
2022-10-05T03:57:31.978Z,25.28
2022-10-05T03:58:02.002Z,25.29
2022-10-05T03:58:32.022Z,25.25
2022-10-05T03:59:02.033Z,25.23
2022-10-05T03:59:32.783Z,25.22
2022-10-05T04:00:02.055Z,25.20
2022-10-05T04:00:32.079Z,25.19
2022-10-05T04:01:02.111Z,25.20
2022-10-05T04:01:32.139Z,25.22
2022-10-05T04:02:02.180Z,25.19
2022-10-05T04:02:32.269Z,25.22
2022-10-05T04:03:02.392Z,25.22
2022-10-05T04:03:32.378Z,25.25
2022-10-05T04:04:02.391Z,25.22
2022-10-05T04:04:32.417Z,25.20
2022-10-05T04:05:02.430Z,25.19
2022-10-05T04:05:32.475Z,25.23
2022-10-05T04:06:02.497Z,25.20
2022-10-05T04:06:32.512Z,25.23
2022-10-05T04:07:02.530Z,25.22
2022-10-05T04:07:32.583Z,25.23
2022-10-05T04:08:02.564Z,25.25
2022-10-05T04:08:32.581Z,25.22
2022-10-05T04:09:02.592Z,25.25
2022-10-05T04:09:32.622Z,25.23
2022-10-05T04:10:02.635Z,25.23
2022-10-05T04:10:32.670Z,25.25
2022-10-05T04:11:02.690Z,25.25
2022-10-05T04:11:32.709Z,25.26
2022-10-05T04:12:02.741Z,25.28
2022-10-05T04:12:32.767Z,25.30
2022-10-05T04:13:02.786Z,25.29
2022-10-05T04:13:32.806Z,25.29
2022-10-05T04:14:02.822Z,25.32
2022-10-05T04:14:32.840Z,25.29
2022-10-05T04:15:02.861Z,25.29
2022-10-05T04:15:32.953Z,25.29
2022-10-05T04:16:03.027Z,25.30
2022-10-05T04:16:33.051Z,25.30
2022-10-05T04:17:03.167Z,25.26
2022-10-05T04:17:33.148Z,25.30
2022-10-05T04:18:03.258Z,25.26
2022-10-05T04:18:33.363Z,25.29
2022-10-05T04:19:03.473Z,25.29
2022-10-05T04:19:33.584Z,25.32
2022-10-05T04:20:03.688Z,25.32
2022-10-05T04:20:33.797Z,25.32
2022-10-05T04:21:03.902Z,25.30
2022-10-05T04:21:34.010Z,25.32
2022-10-05T04:22:04.125Z,25.33
2022-10-05T04:22:34.224Z,25.33
2022-10-05T04:23:04.353Z,25.37
2022-10-05T04:23:34.441Z,25.37
2022-10-05T04:24:04.547Z,25.33
2022-10-05T04:24:34.657Z,25.36
2022-10-05T04:25:04.763Z,25.34
2022-10-05T04:25:34.868Z,25.37
2022-10-05T04:26:04.984Z,25.39
2022-10-05T04:26:35.099Z,25.37
2022-10-05T04:27:05.125Z,25.40
2022-10-05T04:27:35.149Z,25.40
2022-10-05T04:28:05.221Z,25.41
2022-10-05T04:28:35.260Z,25.40
2022-10-05T04:29:05.291Z,25.43
2022-10-05T04:29:35.315Z,25.43
2022-10-05T04:30:05.329Z,25.39
2022-10-05T04:30:35.348Z,25.41
2022-10-05T04:31:05.442Z,25.47
2022-10-05T04:31:35.610Z,25.51
2022-10-05T04:32:05.524Z,25.58
2022-10-05T04:32:35.539Z,25.63
2022-10-05T04:33:05.556Z,25.68
2022-10-05T04:33:35.576Z,25.70
2022-10-05T04:34:05.594Z,25.77
2022-10-05T04:34:35.619Z,25.81
2022-10-05T04:35:05.628Z,25.80
2022-10-05T04:35:35.645Z,25.81
2022-10-05T04:36:05.696Z,25.80
2022-10-05T04:36:35.717Z,25.80
2022-10-05T04:37:05.733Z,25.81
2022-10-05T04:37:35.752Z,25.83
2022-10-05T04:38:05.768Z,25.81
2022-10-05T04:38:35.844Z,25.84
2022-10-05T04:39:05.827Z,25.78
2022-10-05T04:39:35.847Z,25.77
2022-10-05T04:40:05.867Z,25.71
2022-10-05T04:40:35.885Z,25.66
2022-10-05T04:41:05.921Z,25.61
2022-10-05T04:41:35.942Z,25.63
2022-10-05T04:42:05.967Z,25.61
2022-10-05T04:42:35.981Z,25.60
2022-10-05T04:43:06.003Z,25.57
2022-10-05T04:43:36.022Z,25.60
2022-10-05T04:44:06.059Z,25.56
2022-10-05T04:44:36.065Z,25.56
2022-10-05T04:45:06.083Z,25.53
2022-10-05T04:45:36.096Z,25.53
2022-10-05T04:46:06.128Z,25.54
2022-10-05T04:46:36.205Z,25.50
2022-10-05T04:47:06.281Z,25.50
2022-10-05T04:47:36.284Z,25.51
2022-10-05T04:48:06.302Z,25.50
2022-10-05T04:48:36.325Z,25.49
2022-10-05T04:49:06.337Z,25.47
2022-10-05T04:49:36.354Z,25.49
2022-10-05T04:50:06.369Z,25.50
2022-10-05T04:50:36.403Z,25.51
2022-10-05T04:51:06.426Z,25.53
2022-10-05T04:51:36.447Z,25.54
2022-10-05T04:52:06.475Z,25.53
2022-10-05T04:52:36.491Z,25.54
2022-10-05T04:53:06.506Z,25.57
2022-10-05T04:53:36.522Z,25.56
2022-10-05T04:54:06.568Z,25.58
2022-10-05T04:54:36.569Z,25.56
2022-10-05T04:55:06.586Z,25.56
2022-10-05T04:55:36.607Z,25.57
2022-10-05T04:56:06.631Z,25.60
2022-10-05T04:56:36.648Z,25.60
2022-10-05T04:57:06.678Z,25.61
2022-10-05T04:57:36.695Z,25.63
2022-10-05T04:58:06.715Z,25.63
2022-10-05T04:58:41.445Z,25.64
2022-10-05T04:59:06.771Z,25.66
2022-10-05T04:59:36.796Z,25.67
2022-10-05T05:00:06.810Z,25.66
2022-10-05T05:00:36.893Z,25.70
2022-10-05T05:01:07.085Z,25.68
2022-10-05T05:01:36.938Z,25.68
2022-10-05T05:02:06.967Z,25.70
2022-10-05T05:02:36.987Z,25.71
2022-10-05T05:03:07.017Z,25.71
2022-10-05T05:03:37.114Z,25.73
2022-10-05T05:04:07.183Z,25.70
2022-10-05T05:04:37.199Z,25.73
2022-10-05T05:05:07.221Z,25.74
2022-10-05T05:05:48.421Z,25.73
2022-10-05T05:06:18.385Z,25.73
2022-10-05T05:06:37.308Z,25.74
2022-10-05T05:07:07.337Z,25.73
2022-10-05T05:07:37.358Z,25.74
2022-10-05T05:08:07.375Z,25.73
2022-10-05T05:08:37.405Z,25.73
2022-10-05T05:09:07.418Z,25.74
2022-10-05T05:09:37.459Z,25.73
2022-10-05T05:10:07.459Z,25.75
2022-10-05T05:10:37.471Z,25.73
2022-10-05T05:11:09.524Z,25.75
2022-10-05T05:11:37.526Z,25.74
2022-10-05T05:12:07.545Z,25.73
2022-10-05T05:12:37.562Z,25.73
2022-10-05T05:13:07.577Z,25.73
2022-10-05T05:13:37.602Z,25.74
2022-10-05T05:14:07.624Z,25.75
2022-10-05T05:14:37.633Z,25.74
2022-10-05T05:15:07.650Z,25.70
2022-10-05T05:15:37.668Z,25.71
2022-10-05T05:16:07.753Z,25.71
2022-10-05T05:16:37.844Z,25.68
2022-10-05T05:17:12.309Z,25.71
2022-10-05T05:17:37.823Z,25.70
2022-10-05T05:18:07.936Z,25.71
2022-10-05T05:18:38.045Z,25.68
2022-10-05T05:19:08.159Z,25.68
2022-10-05T05:19:38.269Z,25.68
2022-10-05T05:20:08.378Z,25.67
2022-10-05T05:20:38.488Z,25.70
2022-10-05T05:21:08.596Z,25.68
2022-10-05T05:21:38.725Z,25.68
2022-10-05T05:22:08.702Z,25.66
2022-10-05T05:22:38.820Z,25.67
2022-10-05T05:23:08.927Z,25.67
2022-10-05T05:23:39.029Z,25.67
2022-10-05T05:24:09.142Z,25.70
2022-10-05T05:24:39.258Z,25.68
2022-10-05T05:25:09.302Z,25.66
2022-10-05T05:25:39.382Z,25.70
2022-10-05T05:26:09.516Z,25.68
2022-10-05T05:26:39.525Z,25.70
2022-10-05T05:27:09.550Z,25.70
2022-10-05T05:27:39.558Z,25.71
2022-10-05T05:28:09.602Z,25.70
2022-10-05T05:28:39.718Z,25.68
2022-10-05T05:29:09.743Z,25.70
2022-10-05T05:29:39.766Z,25.70
2022-10-05T05:30:09.788Z,25.70
2022-10-05T05:30:39.802Z,25.71
2022-10-05T05:31:09.869Z,25.71
2022-10-05T05:31:40.114Z,25.71
2022-10-05T05:32:09.922Z,25.71
2022-10-05T05:32:39.950Z,25.74
2022-10-05T05:33:09.963Z,25.73
2022-10-05T05:33:39.982Z,25.74
2022-10-05T05:34:10.008Z,25.77
2022-10-05T05:34:40.019Z,25.75
2022-10-05T05:35:10.033Z,25.77
2022-10-05T05:35:40.053Z,25.78
2022-10-05T05:36:10.074Z,25.77
2022-10-05T05:36:40.102Z,25.78
2022-10-05T05:37:10.120Z,25.75
2022-10-05T05:37:40.135Z,25.78
2022-10-05T05:38:10.160Z,25.77
2022-10-05T05:38:40.177Z,25.77
2022-10-05T05:39:10.224Z,25.81
2022-10-05T05:39:40.219Z,25.80
2022-10-05T05:40:10.242Z,25.81
2022-10-05T05:40:40.286Z,25.83
2022-10-05T05:41:10.301Z,25.83
2022-10-05T05:41:40.320Z,25.84
2022-10-05T05:42:10.337Z,25.84
2022-10-05T05:42:40.350Z,25.83
2022-10-05T05:43:10.375Z,25.84
2022-10-05T05:43:40.402Z,25.83
2022-10-05T05:44:10.427Z,25.84
2022-10-05T05:44:40.441Z,25.84
2022-10-05T05:45:10.460Z,25.85
2022-10-05T05:45:40.487Z,25.85
2022-10-05T05:46:10.541Z,25.85
2022-10-05T05:47:02.534Z,25.85
2022-10-05T05:47:11.040Z,25.88
2022-10-05T05:47:40.702Z,25.89
2022-10-05T05:48:10.722Z,25.89
2022-10-05T05:48:40.741Z,25.94
2022-10-05T05:49:10.767Z,25.92
2022-10-05T05:49:40.783Z,25.92
2022-10-05T05:50:10.803Z,25.91
2022-10-05T05:50:40.824Z,25.94
2022-10-05T05:51:10.873Z,25.94
2022-10-05T05:51:40.887Z,25.98
2022-10-05T05:52:10.900Z,25.99
2022-10-05T05:52:40.920Z,26.02
2022-10-05T05:53:10.948Z,26.03
2022-10-05T05:53:40.963Z,26.02
2022-10-05T05:54:10.986Z,26.03
2022-10-05T05:54:41.008Z,26.03
2022-10-05T05:55:11.024Z,26.02
2022-10-05T05:55:41.046Z,26.03
2022-10-05T05:56:11.081Z,26.02
2022-10-05T05:56:41.079Z,26.06
2022-10-05T05:57:11.128Z,26.05
2022-10-05T05:57:41.116Z,26.02
2022-10-05T05:58:11.133Z,26.02
2022-10-05T05:58:41.154Z,25.99
2022-10-05T05:59:11.170Z,25.99
2022-10-05T05:59:41.194Z,25.98
2022-10-05T06:00:11.228Z,25.99
2022-10-05T06:00:41.252Z,25.98
2022-10-05T06:01:30.577Z,25.96
2022-10-05T06:01:44.489Z,25.96
2022-10-05T06:02:11.536Z,25.91
2022-10-05T06:02:41.580Z,25.92
2022-10-05T06:03:11.713Z,25.95
2022-10-05T06:03:41.546Z,25.92
2022-10-05T06:04:11.570Z,25.92
2022-10-05T06:04:41.591Z,25.91
2022-10-05T06:05:11.611Z,25.89
2022-10-05T06:05:41.629Z,25.89
2022-10-05T06:06:11.656Z,25.88
2022-10-05T06:06:41.676Z,25.89
2022-10-05T06:07:11.695Z,25.89
2022-10-05T06:07:41.713Z,25.85
2022-10-05T06:08:11.739Z,25.87
2022-10-05T06:08:41.757Z,25.89
2022-10-05T06:09:11.777Z,25.89
2022-10-05T06:09:41.807Z,25.88
2022-10-05T06:10:11.818Z,25.88
2022-10-05T06:10:41.847Z,25.87
2022-10-05T06:11:11.868Z,25.88
2022-10-05T06:11:41.913Z,25.89
2022-10-05T06:12:11.912Z,25.85
2022-10-05T06:12:41.936Z,25.88
2022-10-05T06:13:11.955Z,25.87
2022-10-05T06:13:41.971Z,25.85
2022-10-05T06:14:11.993Z,25.91
2022-10-05T06:14:42.012Z,25.91
2022-10-05T06:15:12.040Z,25.92
2022-10-05T06:15:42.056Z,25.89
2022-10-05T06:16:12.126Z,25.92
2022-10-05T06:16:42.135Z,25.92
2022-10-05T06:17:12.225Z,25.91
2022-10-05T06:17:42.332Z,25.89
2022-10-05T06:18:51.482Z,25.87
2022-10-05T06:19:21.555Z,25.88
2022-10-05T06:19:51.621Z,25.85
2022-10-05T06:20:21.687Z,25.85
2022-10-05T06:20:51.758Z,25.87
2022-10-05T06:21:21.832Z,25.87
2022-10-05T06:21:51.905Z,25.89
2022-10-05T06:22:21.975Z,25.91
2022-10-05T06:22:52.042Z,25.92
2022-10-05T06:23:22.130Z,25.94
2022-10-05T06:23:52.189Z,25.94
2022-10-05T06:24:22.259Z,25.96
2022-10-05T06:24:52.331Z,25.96
2022-10-05T06:25:22.408Z,25.94
2022-10-05T06:25:52.476Z,25.94
2022-10-05T06:26:22.561Z,25.96
2022-10-05T06:26:52.649Z,25.95
2022-10-05T06:27:22.699Z,25.96